Time;durP1;ratioP1;P1;durP2;ratioP2;P2;SDS_P1;SDS_P2;PMS_P1;PMS_P2;Temp;Humidity;BMP_temperature;BMP_pressure;BME280_temperature;BME280_humidity;BME280_pressure;Samples;Min_cycle;Max_cycle;Signal;HPM_P1;HPM_P2
2023/08/22 00:00:41;;;;;;;4.47;3.80;;;20.80;99.90;;;;;;6105329;23;20291;-77
2023/08/22 00:03:07;;;;;;;5.20;4.60;;;20.70;99.90;;;;;;6130434;23;20491;-77
2023/08/22 00:05:33;;;;;;;4.63;4.23;;;20.60;99.90;;;;;;6130340;23;20356;-76
2023/08/22 00:08:05;;;;;;;4.33;3.93;;;20.60;99.90;;;;;;6131956;23;20371;-77
2023/08/22 00:10:33;;;;;;;6.33;3.80;;;20.50;99.90;;;;;;6104806;23;20175;-77
2023/08/22 00:13:00;;;;;;;7.03;3.67;;;20.40;99.90;;;;;;6131075;23;20426;-77
2023/08/22 00:15:25;;;;;;;3.53;3.20;;;20.40;99.90;;;;;;6130695;23;20379;-77
2023/08/22 00:17:51;;;;;;;5.53;3.37;;;20.40;99.90;;;;;;6130639;23;20617;-78
2023/08/22 00:20:17;;;;;;;4.30;3.70;;;20.40;99.90;;;;;;6131743;23;20194;-77
2023/08/22 00:22:43;;;;;;;4.10;3.20;;;20.50;99.90;;;;;;6082315;23;20143;-78
2023/08/22 00:25:10;;;;;;;7.27;4.00;;;20.60;99.90;;;;;;6131408;23;20717;-77
2023/08/22 00:27:35;;;;;;;4.73;4.20;;;20.60;99.90;;;;;;6130598;23;20426;-76
2023/08/22 00:30:02;;;;;;;7.60;4.97;;;20.60;99.90;;;;;;6129725;23;20404;-77
2023/08/22 00:32:28;;;;;;;5.50;4.30;;;20.70;99.90;;;;;;6105648;23;20148;-76
2023/08/22 00:34:53;;;;;;;10.20;4.37;;;20.60;99.90;;;;;;6131302;23;20816;-79
2023/08/22 00:37:19;;;;;;;5.40;3.90;;;20.70;99.90;;;;;;6104853;23;20880;-78
2023/08/22 00:39:46;;;;;;;7.30;4.00;;;20.60;99.90;;;;;;6130524;23;20553;-75
2023/08/22 00:42:11;;;;;;;4.57;3.97;;;20.70;99.90;;;;;;6104135;23;20522;-78
2023/08/22 00:44:38;;;;;;;4.80;3.93;;;20.60;99.90;;;;;;6105319;23;20156;-76
2023/08/22 00:47:04;;;;;;;3.77;3.10;;;20.50;99.90;;;;;;6105368;23;20419;-76
2023/08/22 00:49:31;;;;;;;5.07;3.80;;;20.40;99.90;;;;;;6104449;23;20431;-76
2023/08/22 00:51:58;;;;;;;5.30;4.00;;;20.40;99.90;;;;;;6129939;23;20368;-77
2023/08/22 00:54:28;;;;;;;4.10;3.67;;;20.30;99.90;;;;;;6104555;23;20407;-76
2023/08/22 00:56:56;;;;;;;6.67;3.93;;;20.20;99.90;;;;;;6131345;23;20748;-75
2023/08/22 00:59:31;;;;;;;5.47;3.23;;;20.20;99.90;;;;;;6131136;23;20368;-77
2023/08/22 01:01:57;;;;;;;5.20;4.03;;;20.10;99.90;;;;;;6104134;23;20379;-78
2023/08/22 01:04:23;;;;;;;7.97;4.83;;;20.20;99.90;;;;;;6104926;23;20379;-75
2023/08/22 01:07:03;;;;;;;4.77;4.20;;;20.20;99.90;;;;;;6130475;23;20177;-76
2023/08/22 01:09:31;;;;;;;4.77;4.30;;;20.20;99.90;;;;;;6130233;23;20359;-76
2023/08/22 01:12:03;;;;;;;7.07;4.73;;;20.30;99.90;;;;;;6103458;23;20387;-75
2023/08/22 01:14:32;;;;;;;5.07;4.23;;;20.30;99.90;;;;;;6104570;23;20368;-76
2023/08/22 01:17:00;;;;;;;7.10;5.47;;;20.30;99.90;;;;;;6130253;23;20426;-75
2023/08/22 01:19:28;;;;;;;5.80;4.83;;;20.30;99.90;;;;;;6110891;23;20411;-76
2023/08/22 01:21:55;;;;;;;5.97;4.70;;;20.20;99.90;;;;;;6106653;23;20434;-77
2023/08/22 01:24:22;;;;;;;6.53;4.20;;;20.10;99.90;;;;;;6090254;23;20384;-77
2023/08/22 01:26:48;;;;;;;3.93;3.53;;;20.10;99.90;;;;;;6130041;23;20506;-76
2023/08/22 01:29:38;;;;;;;4.73;4.33;;;19.90;99.90;;;;;;6129326;23;20178;-76
2023/08/22 01:32:26;;;;;;;4.80;4.03;;;19.90;99.90;;;;;;6128784;23;20367;-77
2023/08/22 01:34:56;;;;;;;9.73;4.67;;;19.80;99.90;;;;;;6129307;23;20372;-77
2023/08/22 01:37:23;;;;;;;5.40;4.53;;;19.80;99.90;;;;;;6129001;23;20853;-76
2023/08/22 01:39:55;;;;;;;8.40;4.50;;;19.80;99.90;;;;;;6103527;23;20383;-77
2023/08/22 01:42:22;;;;;;;8.27;4.53;;;19.70;99.90;;;;;;6128590;23;20455;-77
2023/08/22 01:44:47;;;;;;;5.50;5.00;;;19.70;99.90;;;;;;6080109;23;20430;-77
2023/08/22 01:47:13;;;;;;;7.03;4.73;;;19.60;99.90;;;;;;6129027;23;20447;-76
2023/08/22 01:49:39;;;;;;;6.97;5.00;;;19.60;99.90;;;;;;6128971;23;20540;-76
2023/08/22 01:52:04;;;;;;;8.53;5.90;;;19.60;99.90;;;;;;6128963;23;20160;-76
2023/08/22 01:54:30;;;;;;;7.63;5.67;;;19.50;99.90;;;;;;6103758;23;20553;-76
2023/08/22 01:56:56;;;;;;;6.37;5.30;;;19.50;99.90;;;;;;6102883;23;20206;-75
2023/08/22 01:59:22;;;;;;;7.23;4.80;;;19.40;99.90;;;;;;6102932;23;20785;-75
2023/08/22 02:01:47;;;;;;;6.10;5.17;;;19.40;99.90;;;;;;6102985;23;20171;-75
2023/08/22 02:04:13;;;;;;;7.23;5.97;;;19.30;99.90;;;;;;6128933;23;20136;-78
2023/08/22 02:06:39;;;;;;;7.60;5.87;;;19.30;99.90;;;;;;6102453;23;20148;-76
2023/08/22 02:09:05;;;;;;;5.83;4.63;;;19.30;99.90;;;;;;6102847;23;20179;-76
2023/08/22 02:11:32;;;;;;;6.00;5.40;;;19.30;99.90;;;;;;6131340;23;20159;-76
2023/08/22 02:13:58;;;;;;;6.60;5.07;;;19.30;99.90;;;;;;6104111;23;20374;-76
2023/08/22 02:16:24;;;;;;;6.40;5.30;;;19.20;99.90;;;;;;6078701;23;20392;-76
2023/08/22 02:18:50;;;;;;;10.50;7.13;;;19.20;99.90;;;;;;6128477;23;20243;-76
2023/08/22 02:21:17;;;;;;;8.90;6.60;;;19.10;99.90;;;;;;6103471;23;20405;-77
2023/08/22 02:23:42;;;;;;;7.87;5.63;;;19.10;99.90;;;;;;6102923;23;20147;-76
2023/08/22 02:26:16;;;;;;;7.47;5.67;;;19.10;99.90;;;;;;6137646;23;20344;-75
2023/08/22 02:28:43;;;;;;;7.60;5.80;;;19.00;99.90;;;;;;6022538;23;20164;-77
2023/08/22 02:31:08;;;;;;;7.50;5.17;;;19.00;99.90;;;;;;6015613;23;20402;-76
2023/08/22 02:33:34;;;;;;;5.50;4.77;;;19.00;99.90;;;;;;6014991;23;20150;-76
2023/08/22 02:35:59;;;;;;;5.80;4.90;;;18.90;99.90;;;;;;6038733;23;20137;-77
2023/08/22 02:38:25;;;;;;;7.57;6.77;;;18.90;99.90;;;;;;6039086;23;20193;-76
2023/08/22 02:40:56;;;;;;;10.27;6.50;;;18.80;99.90;;;;;;6034504;23;20177;-76
2023/08/22 02:43:40;;;;;;;8.40;6.83;;;18.90;99.90;;;;;;6045367;23;20410;-74
2023/08/22 02:46:29;;;;;;;8.23;6.63;;;18.80;99.90;;;;;;6018863;23;20386;-75
2023/08/22 02:49:16;;;;;;;6.30;5.50;;;18.90;99.90;;;;;;6066187;23;20395;-75
2023/08/22 02:51:45;;;;;;;6.83;5.43;;;18.80;99.90;;;;;;6042129;23;20393;-76
2023/08/22 02:54:11;;;;;;;9.00;5.60;;;18.80;99.90;;;;;;5995393;23;20433;-75
2023/08/22 02:56:58;;;;;;;9.80;5.70;;;18.80;99.90;;;;;;6041659;23;20385;-76
2023/08/22 02:59:29;;;;;;;10.63;5.53;;;18.80;99.90;;;;;;6071734;23;20192;-75
2023/08/22 03:02:28;;;;;;;9.10;5.67;;;18.80;99.90;;;;;;6106202;23;20366;-77
2023/08/22 03:05:30;;;;;;;6.10;5.20;;;18.80;99.90;;;;;;6101524;23;20435;-77
2023/08/22 03:08:04;;;;;;;7.73;4.80;;;18.80;99.90;;;;;;6073467;23;20396;-77
2023/08/22 03:10:56;;;;;;;7.87;5.40;;;18.80;99.90;;;;;;6007085;23;20444;-77
2023/08/22 03:13:24;;;;;;;6.03;4.60;;;18.70;99.90;;;;;;6088145;23;20845;-76
2023/08/22 03:18:57;;;;;;;7.17;6.43;;;18.70;99.90;;;;;;6125705;23;20488;-75
2023/08/22 03:21:27;;;;;;;6.00;5.37;;;18.70;99.90;;;;;;6080439;23;20413;-76
2023/08/22 03:23:56;;;;;;;8.47;4.83;;;18.70;99.90;;;;;;6026136;23;20463;-76
2023/08/22 03:29:09;;;;;;;6.03;4.57;;;18.60;99.90;;;;;;6125757;23;20515;-77
2023/08/22 03:32:35;;;;;;;6.43;4.87;;;18.50;99.90;;;;;;6124875;23;20395;-76
2023/08/22 03:35:46;;;;;;;10.47;4.57;;;18.50;99.90;;;;;;6126417;23;20510;-76
2023/08/22 03:47:44;;;;;;;4.40;3.93;;;18.20;99.90;;;;;;6113203;23;20462;-75
2023/08/22 03:50:50;;;;;;;6.73;5.17;;;18.20;99.90;;;;;;6103424;23;20386;-78
2023/08/22 03:53:39;;;;;;;8.57;6.97;;;18.20;99.90;;;;;;6126505;23;20403;-76
2023/08/22 03:56:07;;;;;;;8.03;7.03;;;18.20;99.90;;;;;;6101663;23;20453;-77
2023/08/22 03:58:33;;;;;;;6.57;6.00;;;18.20;99.90;;;;;;6100757;23;20451;-76
2023/08/22 04:01:03;;;;;;;8.33;6.23;;;18.30;99.90;;;;;;6099240;23;20681;-77
2023/08/22 04:03:30;;;;;;;6.83;5.20;;;18.30;99.90;;;;;;6078513;23;20391;-77
2023/08/22 04:05:58;;;;;;;6.90;6.30;;;18.30;99.90;;;;;;6106376;23;20451;-76
2023/08/22 04:08:24;;;;;;;7.17;6.47;;;18.30;99.90;;;;;;6104013;23;20556;-78
2023/08/22 04:10:52;;;;;;;11.83;7.83;;;18.30;99.90;;;;;;6078686;23;20399;-77
2023/08/22 04:13:17;;;;;;;11.20;8.87;;;18.30;99.90;;;;;;6076450;23;20387;-77
2023/08/22 04:15:43;;;;;;;13.90;9.40;;;18.30;99.90;;;;;;6102437;23;20436;-77
2023/08/22 04:18:09;;;;;;;12.00;9.90;;;18.30;99.90;;;;;;6052545;23;20248;-78
2023/08/22 04:20:35;;;;;;;13.20;9.57;;;18.30;99.90;;;;;;6102051;23;20852;-76
2023/08/22 04:23:00;;;;;;;10.30;9.20;;;18.40;99.90;;;;;;6102693;23;20138;-78
2023/08/22 04:25:26;;;;;;;12.33;10.30;;;18.30;99.90;;;;;;6100885;23;20144;-77
2023/08/22 04:27:52;;;;;;;13.20;10.37;;;18.30;99.90;;;;;;6078213;23;20411;-77
2023/08/22 04:30:18;;;;;;;14.07;9.87;;;18.30;99.90;;;;;;6102465;23;20243;-77
2023/08/22 04:32:44;;;;;;;13.57;10.17;;;18.20;99.90;;;;;;6077679;23;20152;-78
2023/08/22 04:35:11;;;;;;;10.87;8.10;;;18.20;99.90;;;;;;6083754;23;20599;-79
2023/08/22 04:37:42;;;;;;;12.80;10.57;;;18.30;99.90;;;;;;6078162;23;20420;-75
2023/08/22 04:40:09;;;;;;;8.23;7.20;;;18.20;99.90;;;;;;6079174;23;20424;-77
2023/08/22 04:42:58;;;;;;;9.10;8.20;;;18.20;99.90;;;;;;6077947;23;20418;-76
2023/08/22 04:45:24;;;;;;;9.13;7.83;;;18.20;99.90;;;;;;6053465;23;20374;-77
2023/08/22 04:47:50;;;;;;;10.30;7.80;;;18.20;99.90;;;;;;6055211;23;20424;-77
2023/08/22 04:50:15;;;;;;;10.40;8.20;;;18.30;99.90;;;;;;6078028;23;20172;-77
2023/08/22 04:52:41;;;;;;;10.97;8.50;;;18.30;99.90;;;;;;6056416;23;20179;-79
2023/08/22 04:55:07;;;;;;;9.40;7.80;;;18.30;99.90;;;;;;6056487;23;20161;-76
2023/08/22 04:57:33;;;;;;;9.50;7.80;;;18.40;99.90;;;;;;6104483;23;20169;-78
2023/08/22 04:59:59;;;;;;;13.03;10.30;;;18.50;99.90;;;;;;6103619;23;20782;-77
2023/08/22 22:10:51;;;;;;;5.93;3.40;;;20.20;99.60;;;;;;6117427;23;20511;-78
2023/08/22 22:13:16;;;;;;;5.40;2.50;;;20.20;99.90;;;;;;6070867;23;20417;-76
2023/08/22 22:16:15;;;;;;;7.20;3.00;;;20.20;99.90;;;;;;6094782;23;20425;-77
2023/08/22 22:22:08;;;;;;;3.10;2.50;;;20.20;99.90;;;;;;6111057;23;20464;-78
2023/08/22 22:24:37;;;;;;;3.50;2.57;;;20.10;99.90;;;;;;6100422;23;20378;-79
2023/08/22 22:27:10;;;;;;;2.97;2.30;;;20.10;99.90;;;;;;6100449;23;20349;-77
2023/08/22 22:29:39;;;;;;;3.30;2.03;;;20.00;99.90;;;;;;6075130;23;20388;-79
2023/08/22 22:32:06;;;;;;;3.60;2.33;;;20.00;99.90;;;;;;6100138;23;20404;-76
2023/08/22 22:34:50;;;;;;;5.50;3.40;;;20.00;99.90;;;;;;6103581;23;20204;-76
2023/08/22 22:55:40;;;;;;;3.43;2.47;;;19.70;99.90;;;;;;6124003;23;20455;-76
2023/08/22 22:58:27;;;;;;;2.70;2.10;;;19.60;99.90;;;;;;6104110;23;20412;-75
2023/08/22 23:00:53;;;;;;;3.80;2.07;;;19.50;99.90;;;;;;6043947;23;20407;-77
2023/08/22 23:03:19;;;;;;;2.63;2.30;;;19.40;99.90;;;;;;6014745;23;20750;-80
2023/08/22 23:05:44;;;;;;;3.07;2.30;;;19.30;99.90;;;;;;6053631;23;20146;-76
2023/08/22 23:08:10;;;;;;;3.80;3.07;;;19.30;99.90;;;;;;6038767;23;20138;-77
2023/08/22 23:10:35;;;;;;;3.40;3.03;;;19.20;99.90;;;;;;5991683;23;20188;-77
2023/08/22 23:13:01;;;;;;;4.70;2.23;;;19.20;99.90;;;;;;6016439;23;20131;-76
2023/08/22 23:15:27;;;;;;;4.57;3.07;;;19.10;99.90;;;;;;6040318;23;20185;-79
2023/08/22 23:17:52;;;;;;;3.87;3.47;;;19.10;99.90;;;;;;6016637;23;20166;-79
2023/08/22 23:20:20;;;;;;;4.07;2.80;;;19.10;99.90;;;;;;6014833;23;20353;-76
2023/08/22 23:22:47;;;;;;;4.13;3.00;;;19.10;99.90;;;;;;6040909;23;20146;-78
2023/08/22 23:25:13;;;;;;;4.03;3.60;;;19.20;99.90;;;;;;6016986;23;20474;-75
2023/08/22 23:27:39;;;;;;;4.33;2.70;;;19.10;99.90;;;;;;6040461;23;20430;-76
2023/08/22 23:30:07;;;;;;;4.20;2.80;;;19.10;99.90;;;;;;6041036;23;20169;-76
2023/08/22 23:32:33;;;;;;;2.73;2.23;;;19.10;99.90;;;;;;6066272;23;20377;-77
2023/08/22 23:35:00;;;;;;;2.63;2.43;;;19.00;99.90;;;;;;6073078;23;20408;-77
2023/08/22 23:37:26;;;;;;;3.57;2.87;;;19.00;99.90;;;;;;6072526;23;20180;-77
2023/08/22 23:39:53;;;;;;;4.80;2.97;;;19.10;99.90;;;;;;6048657;23;20826;-77
2023/08/22 23:42:19;;;;;;;3.07;2.77;;;19.00;99.90;;;;;;6072328;23;20452;-76
2023/08/22 23:44:46;;;;;;;2.83;2.60;;;19.00;99.90;;;;;;6071970;23;20424;-76
2023/08/22 23:47:13;;;;;;;2.50;2.30;;;18.90;99.90;;;;;;6047321;23;20405;-76
2023/08/22 23:49:40;;;;;;;2.60;2.30;;;18.80;99.90;;;;;;6023125;23;20397;-77
2023/08/22 23:52:06;;;;;;;2.43;1.87;;;18.80;99.90;;;;;;6072602;23;20362;-77
2023/08/22 23:54:32;;;;;;;3.77;2.00;;;18.70;99.90;;;;;;6072717;23;20890;-76
2023/08/22 23:57:02;;;;;;;2.33;2.00;;;18.60;99.90;;;;;;6046539;23;20374;-77
2023/08/22 23:59:29;;;;;;;2.53;1.90;;;18.60;99.90;;;;;;6047429;23;20512;-77
